sensor_id;sensor_type;location;lat;lon;timestamp;temperature;humidity
13817;DHT22;6979;52.116;5.286;2023-02-15T00:01:06;8.10;99.90
13817;DHT22;6979;52.116;5.286;2023-02-15T00:03:34;8.10;99.90
13817;DHT22;6979;52.116;5.286;2023-02-15T00:06:01;8.00;99.90
13817;DHT22;6979;52.116;5.286;2023-02-15T00:08:28;8.00;99.90
13817;DHT22;6979;52.116;5.286;2023-02-15T00:11:04;8.00;99.90
13817;DHT22;6979;52.116;5.286;2023-02-15T00:13:31;7.90;99.90
13817;DHT22;6979;52.116;5.286;2023-02-15T00:16:01;7.90;99.90
13817;DHT22;6979;52.116;5.286;2023-02-15T00:18:28;7.90;99.90
13817;DHT22;6979;52.116;5.286;2023-02-15T00:20:56;7.80;99.90
13817;DHT22;6979;52.116;5.286;2023-02-15T00:23:24;7.80;99.90
13817;DHT22;6979;52.116;5.286;2023-02-15T00:25:50;7.80;99.90
13817;DHT22;6979;52.116;5.286;2023-02-15T00:28:17;7.70;99.90
13817;DHT22;6979;52.116;5.286;2023-02-15T00:30:44;7.70;99.90
13817;DHT22;6979;52.116;5.286;2023-02-15T00:33:11;7.70;99.90
13817;DHT22;6979;52.116;5.286;2023-02-15T00:35:39;7.70;99.90
13817;DHT22;6979;52.116;5.286;2023-02-15T00:38:08;7.70;99.90
13817;DHT22;6979;52.116;5.286;2023-02-15T00:40:34;7.70;99.90
13817;DHT22;6979;52.116;5.286;2023-02-15T00:43:01;7.60;99.90
13817;DHT22;6979;52.116;5.286;2023-02-15T00:45:28;7.60;99.90
13817;DHT22;6979;52.116;5.286;2023-02-15T00:47:55;7.60;99.90
13817;DHT22;6979;52.116;5.286;2023-02-15T00:50:22;7.60;99.90
13817;DHT22;6979;52.116;5.286;2023-02-15T00:52:48;7.60;99.90
13817;DHT22;6979;52.116;5.286;2023-02-15T00:55:17;7.50;99.90
13817;DHT22;6979;52.116;5.286;2023-02-15T00:57:43;7.50;99.90
13817;DHT22;6979;52.116;5.286;2023-02-15T01:00:11;7.50;99.90
13817;DHT22;6979;52.116;5.286;2023-02-15T01:02:40;7.40;99.90
13817;DHT22;6979;52.116;5.286;2023-02-15T01:05:07;7.40;99.90
13817;DHT22;6979;52.116;5.286;2023-02-15T01:07:34;7.40;99.90
13817;DHT22;6979;52.116;5.286;2023-02-15T01:10:01;7.40;99.90
13817;DHT22;6979;52.116;5.286;2023-02-15T01:12:33;7.30;99.90
13817;DHT22;6979;52.116;5.286;2023-02-15T01:15:00;7.30;99.90
13817;DHT22;6979;52.116;5.286;2023-02-15T01:17:29;7.30;99.90
13817;DHT22;6979;52.116;5.286;2023-02-15T01:19:59;7.20;99.90
13817;DHT22;6979;52.116;5.286;2023-02-15T01:22:29;7.20;99.90
13817;DHT22;6979;52.116;5.286;2023-02-15T01:24:56;7.20;99.90
13817;DHT22;6979;52.116;5.286;2023-02-15T01:27:23;7.20;99.90
13817;DHT22;6979;52.116;5.286;2023-02-15T01:29:51;7.10;99.90
13817;DHT22;6979;52.116;5.286;2023-02-15T01:32:21;7.10;99.90
13817;DHT22;6979;52.116;5.286;2023-02-15T01:34:48;7.10;99.90
13817;DHT22;6979;52.116;5.286;2023-02-15T01:37:15;7.10;99.90
13817;DHT22;6979;52.116;5.286;2023-02-15T01:39:41;7.00;99.90
13817;DHT22;6979;52.116;5.286;2023-02-15T01:42:10;7.00;99.90
13817;DHT22;6979;52.116;5.286;2023-02-15T01:44:52;6.90;99.90
13817;DHT22;6979;52.116;5.286;2023-02-15T01:47:22;6.90;99.90
13817;DHT22;6979;52.116;5.286;2023-02-15T01:49:56;6.80;99.90
13817;DHT22;6979;52.116;5.286;2023-02-15T01:52:27;6.80;99.90
13817;DHT22;6979;52.116;5.286;2023-02-15T01:54:54;6.80;99.90
13817;DHT22;6979;52.116;5.286;2023-02-15T01:57:24;6.80;99.90
13817;DHT22;6979;52.116;5.286;2023-02-15T01:59:56;6.70;99.90
13817;DHT22;6979;52.116;5.286;2023-02-15T02:02:25;6.70;99.90
13817;DHT22;6979;52.116;5.286;2023-02-15T02:04:54;6.70;99.90
13817;DHT22;6979;52.116;5.286;2023-02-15T02:07:26;6.70;99.90
13817;DHT22;6979;52.116;5.286;2023-02-15T02:09:54;6.60;99.90
13817;DHT22;6979;52.116;5.286;2023-02-15T02:12:23;6.60;99.90
13817;DHT22;6979;52.116;5.286;2023-02-15T02:14:53;6.60;99.90
13817;DHT22;6979;52.116;5.286;2023-02-15T02:17:28;6.60;99.90
13817;DHT22;6979;52.116;5.286;2023-02-15T02:20:16;6.60;99.90
13817;DHT22;6979;52.116;5.286;2023-02-15T02:23:10;6.50;99.90
13817;DHT22;6979;52.116;5.286;2023-02-15T02:29:14;6.50;99.90
13817;DHT22;6979;52.116;5.286;2023-02-15T02:32:12;6.50;99.90
13817;DHT22;6979;52.116;5.286;2023-02-15T02:34:51;6.40;99.90
13817;DHT22;6979;52.116;5.286;2023-02-15T02:37:26;6.40;99.90
13817;DHT22;6979;52.116;5.286;2023-02-15T02:39:59;6.30;99.90
13817;DHT22;6979;52.116;5.286;2023-02-15T02:42:33;6.30;99.90
13817;DHT22;6979;52.116;5.286;2023-02-15T02:45:06;6.30;99.90
13817;DHT22;6979;52.116;5.286;2023-02-15T02:47:37;6.30;99.90
13817;DHT22;6979;52.116;5.286;2023-02-15T02:50:09;6.20;99.90
13817;DHT22;6979;52.116;5.286;2023-02-15T02:52:42;6.20;99.90
13817;DHT22;6979;52.116;5.286;2023-02-15T02:55:13;6.20;99.90
13817;DHT22;6979;52.116;5.286;2023-02-15T02:57:47;6.20;99.90
13817;DHT22;6979;52.116;5.286;2023-02-15T03:00:19;6.20;99.90
13817;DHT22;6979;52.116;5.286;2023-02-15T03:02:50;6.20;99.90
13817;DHT22;6979;52.116;5.286;2023-02-15T03:05:24;6.20;99.90
13817;DHT22;6979;52.116;5.286;2023-02-15T03:07:53;6.10;99.90
13817;DHT22;6979;52.116;5.286;2023-02-15T03:10:24;6.10;99.90
13817;DHT22;6979;52.116;5.286;2023-02-15T03:12:52;6.10;99.90
13817;DHT22;6979;52.116;5.286;2023-02-15T03:15:21;6.10;99.90
13817;DHT22;6979;52.116;5.286;2023-02-15T03:17:51;6.10;99.90
13817;DHT22;6979;52.116;5.286;2023-02-15T03:20:24;6.10;99.90
13817;DHT22;6979;52.116;5.286;2023-02-15T03:22:55;6.10;99.90
13817;DHT22;6979;52.116;5.286;2023-02-15T03:25:34;6.10;99.90
13817;DHT22;6979;52.116;5.286;2023-02-15T03:28:04;6.10;99.90
13817;DHT22;6979;52.116;5.286;2023-02-15T03:30:35;6.10;99.90
13817;DHT22;6979;52.116;5.286;2023-02-15T03:33:04;6.10;99.90
13817;DHT22;6979;52.116;5.286;2023-02-15T03:35:41;6.00;99.90
13817;DHT22;6979;52.116;5.286;2023-02-15T03:38:12;6.00;99.90
13817;DHT22;6979;52.116;5.286;2023-02-15T03:40:44;6.00;99.90
13817;DHT22;6979;52.116;5.286;2023-02-15T03:43:32;6.00;99.90
13817;DHT22;6979;52.116;5.286;2023-02-15T03:46:07;6.00;99.90
13817;DHT22;6979;52.116;5.286;2023-02-15T03:48:43;5.90;99.90
13817;DHT22;6979;52.116;5.286;2023-02-15T03:51:17;5.90;99.90
13817;DHT22;6979;52.116;5.286;2023-02-15T03:54:01;5.90;99.90
13817;DHT22;6979;52.116;5.286;2023-02-15T03:56:29;5.90;99.90
13817;DHT22;6979;52.116;5.286;2023-02-15T03:58:56;5.90;99.90
13817;DHT22;6979;52.116;5.286;2023-02-15T04:01:46;5.80;99.90
13817;DHT22;6979;52.116;5.286;2023-02-15T04:04:33;5.80;99.90
13817;DHT22;6979;52.116;5.286;2023-02-15T04:07:02;5.80;99.90
13817;DHT22;6979;52.116;5.286;2023-02-15T04:09:29;5.80;99.90
13817;DHT22;6979;52.116;5.286;2023-02-15T04:12:13;5.80;99.90
13817;DHT22;6979;52.116;5.286;2023-02-15T04:14:40;5.70;99.90
13817;DHT22;6979;52.116;5.286;2023-02-15T04:17:24;5.70;99.90
13817;DHT22;6979;52.116;5.286;2023-02-15T04:19:53;5.70;99.90
13817;DHT22;6979;52.116;5.286;2023-02-15T04:22:39;5.70;99.90
13817;DHT22;6979;52.116;5.286;2023-02-15T04:25:23;5.70;99.90
13817;DHT22;6979;52.116;5.286;2023-02-15T04:27:51;5.70;99.90
13817;DHT22;6979;52.116;5.286;2023-02-15T04:30:20;5.70;99.90
13817;DHT22;6979;52.116;5.286;2023-02-15T04:32:47;5.70;99.90
13817;DHT22;6979;52.116;5.286;2023-02-15T04:35:15;5.60;99.90
13817;DHT22;6979;52.116;5.286;2023-02-15T04:37:43;5.60;99.90
13817;DHT22;6979;52.116;5.286;2023-02-15T04:40:12;5.60;99.90
13817;DHT22;6979;52.116;5.286;2023-02-15T04:42:39;5.60;99.90
13817;DHT22;6979;52.116;5.286;2023-02-15T04:45:08;5.60;99.90
13817;DHT22;6979;52.116;5.286;2023-02-15T04:47:48;5.60;99.90
13817;DHT22;6979;52.116;5.286;2023-02-15T04:50:16;5.60;99.90
13817;DHT22;6979;52.116;5.286;2023-02-15T04:52:44;5.60;99.90
13817;DHT22;6979;52.116;5.286;2023-02-15T04:55:11;5.50;99.90
13817;DHT22;6979;52.116;5.286;2023-02-15T04:57:38;5.50;99.90
13817;DHT22;6979;52.116;5.286;2023-02-15T05:00:06;5.60;99.90
13817;DHT22;6979;52.116;5.286;2023-02-15T05:02:34;5.50;99.90
13817;DHT22;6979;52.116;5.286;2023-02-15T05:05:02;5.50;99.90
13817;DHT22;6979;52.116;5.286;2023-02-15T05:07:29;5.50;99.90
13817;DHT22;6979;52.116;5.286;2023-02-15T05:09:57;5.50;99.90
13817;DHT22;6979;52.116;5.286;2023-02-15T05:12:24;5.50;99.90
13817;DHT22;6979;52.116;5.286;2023-02-15T05:14:51;5.50;99.90
13817;DHT22;6979;52.116;5.286;2023-02-15T05:17:19;5.50;99.90
13817;DHT22;6979;52.116;5.286;2023-02-15T05:19:47;5.50;99.90
13817;DHT22;6979;52.116;5.286;2023-02-15T05:22:14;5.50;99.90
13817;DHT22;6979;52.116;5.286;2023-02-15T05:24:41;5.50;99.90
13817;DHT22;6979;52.116;5.286;2023-02-15T05:27:26;5.50;99.90
13817;DHT22;6979;52.116;5.286;2023-02-15T05:30:12;5.50;99.90
13817;DHT22;6979;52.116;5.286;2023-02-15T05:32:40;5.50;99.90
13817;DHT22;6979;52.116;5.286;2023-02-15T05:35:07;5.50;99.90
13817;DHT22;6979;52.116;5.286;2023-02-15T05:37:34;5.50;99.90
13817;DHT22;6979;52.116;5.286;2023-02-15T05:40:00;5.50;99.90
13817;DHT22;6979;52.116;5.286;2023-02-15T05:42:29;5.50;99.90
13817;DHT22;6979;52.116;5.286;2023-02-15T05:44:56;5.50;99.90
13817;DHT22;6979;52.116;5.286;2023-02-15T05:47:22;5.50;99.90
13817;DHT22;6979;52.116;5.286;2023-02-15T05:49:50;5.50;99.90
13817;DHT22;6979;52.116;5.286;2023-02-15T05:52:17;5.50;99.90
13817;DHT22;6979;52.116;5.286;2023-02-15T05:54:44;5.40;99.90
13817;DHT22;6979;52.116;5.286;2023-02-15T05:57:11;5.40;99.90
13817;DHT22;6979;52.116;5.286;2023-02-15T05:59:39;5.40;99.90
13817;DHT22;6979;52.116;5.286;2023-02-15T06:02:06;5.40;99.90
13817;DHT22;6979;52.116;5.286;2023-02-15T06:04:33;5.50;99.90
13817;DHT22;6979;52.116;5.286;2023-02-15T06:07:00;5.40;99.90
13817;DHT22;6979;52.116;5.286;2023-02-15T06:09:27;5.40;99.90
13817;DHT22;6979;52.116;5.286;2023-02-15T06:11:54;5.40;99.90
13817;DHT22;6979;52.116;5.286;2023-02-15T06:14:20;5.40;99.90
13817;DHT22;6979;52.116;5.286;2023-02-15T06:16:49;5.40;99.90
13817;DHT22;6979;52.116;5.286;2023-02-15T06:19:16;5.40;99.90
13817;DHT22;6979;52.116;5.286;2023-02-15T06:21:44;5.40;99.90
13817;DHT22;6979;52.116;5.286;2023-02-15T06:24:14;5.40;99.90
13817;DHT22;6979;52.116;5.286;2023-02-15T06:26:41;5.40;99.90
13817;DHT22;6979;52.116;5.286;2023-02-15T06:29:08;5.40;99.90
13817;DHT22;6979;52.116;5.286;2023-02-15T06:31:35;5.40;99.90
13817;DHT22;6979;52.116;5.286;2023-02-15T06:34:05;5.40;99.90
13817;DHT22;6979;52.116;5.286;2023-02-15T06:36:32;5.40;99.90
13817;DHT22;6979;52.116;5.286;2023-02-15T06:38:59;5.40;99.90
13817;DHT22;6979;52.116;5.286;2023-02-15T06:41:26;5.40;99.90
13817;DHT22;6979;52.116;5.286;2023-02-15T06:43:53;5.40;99.90
13817;DHT22;6979;52.116;5.286;2023-02-15T06:46:25;5.40;99.90
13817;DHT22;6979;52.116;5.286;2023-02-15T06:48:52;5.40;99.90
13817;DHT22;6979;52.116;5.286;2023-02-15T06:51:20;5.40;99.90
13817;DHT22;6979;52.116;5.286;2023-02-15T06:53:47;5.40;99.90
13817;DHT22;6979;52.116;5.286;2023-02-15T06:56:14;5.50;99.90
13817;DHT22;6979;52.116;5.286;2023-02-15T06:58:42;5.50;99.90
13817;DHT22;6979;52.116;5.286;2023-02-15T07:01:12;5.50;99.90
13817;DHT22;6979;52.116;5.286;2023-02-15T07:03:38;5.50;99.90
13817;DHT22;6979;52.116;5.286;2023-02-15T07:06:05;5.50;99.90
13817;DHT22;6979;52.116;5.286;2023-02-15T07:08:36;5.60;99.90
13817;DHT22;6979;52.116;5.286;2023-02-15T07:11:03;5.60;99.90
13817;DHT22;6979;52.116;5.286;2023-02-15T07:13:47;5.60;99.90
13817;DHT22;6979;52.116;5.286;2023-02-15T07:16:16;5.60;99.90
13817;DHT22;6979;52.116;5.286;2023-02-15T07:18:43;5.70;99.90
13817;DHT22;6979;52.116;5.286;2023-02-15T07:21:11;5.70;99.90
13817;DHT22;6979;52.116;5.286;2023-02-15T07:23:42;5.70;99.90
13817;DHT22;6979;52.116;5.286;2023-02-15T07:26:09;5.70;99.90
13817;DHT22;6979;52.116;5.286;2023-02-15T07:28:36;5.80;99.90
13817;DHT22;6979;52.116;5.286;2023-02-15T07:31:03;5.80;99.90
13817;DHT22;6979;52.116;5.286;2023-02-15T07:33:30;5.80;99.90
13817;DHT22;6979;52.116;5.286;2023-02-15T07:36:01;5.90;99.90
13817;DHT22;6979;52.116;5.286;2023-02-15T07:38:31;5.90;99.90
13817;DHT22;6979;52.116;5.286;2023-02-15T07:40:59;6.00;99.90
13817;DHT22;6979;52.116;5.286;2023-02-15T07:43:29;6.00;99.90
13817;DHT22;6979;52.116;5.286;2023-02-15T07:45:59;6.10;99.90
13817;DHT22;6979;52.116;5.286;2023-02-15T07:48:26;6.10;99.90
13817;DHT22;6979;52.116;5.286;2023-02-15T07:50:58;6.20;99.90
13817;DHT22;6979;52.116;5.286;2023-02-15T07:53:29;6.20;99.90
13817;DHT22;6979;52.116;5.286;2023-02-15T07:55:59;6.20;99.90
13817;DHT22;6979;52.116;5.286;2023-02-15T07:58:28;6.30;99.90
13817;DHT22;6979;52.116;5.286;2023-02-15T08:01:09;6.40;99.90
13817;DHT22;6979;52.116;5.286;2023-02-15T08:03:38;6.40;99.90
13817;DHT22;6979;52.116;5.286;2023-02-15T08:06:06;6.50;99.90
13817;DHT22;6979;52.116;5.286;2023-02-15T08:08:33;6.60;99.90
13817;DHT22;6979;52.116;5.286;2023-02-15T08:11:06;6.60;99.90
13817;DHT22;6979;52.116;5.286;2023-02-15T08:13:52;6.70;99.90
13817;DHT22;6979;52.116;5.286;2023-02-15T08:16:27;6.80;99.90
13817;DHT22;6979;52.116;5.286;2023-02-15T08:18:55;6.80;99.90
13817;DHT22;6979;52.116;5.286;2023-02-15T08:21:22;6.90;99.90
13817;DHT22;6979;52.116;5.286;2023-02-15T08:23:53;7.00;99.90
13817;DHT22;6979;52.116;5.286;2023-02-15T08:26:21;7.00;99.90
13817;DHT22;6979;52.116;5.286;2023-02-15T08:28:48;7.10;99.90
13817;DHT22;6979;52.116;5.286;2023-02-15T08:31:20;7.20;99.90
13817;DHT22;6979;52.116;5.286;2023-02-15T08:33:48;7.30;99.90
13817;DHT22;6979;52.116;5.286;2023-02-15T08:36:17;7.40;99.90
13817;DHT22;6979;52.116;5.286;2023-02-15T08:38:47;7.50;99.90
13817;DHT22;6979;52.116;5.286;2023-02-15T08:41:17;7.60;99.90
13817;DHT22;6979;52.116;5.286;2023-02-15T08:43:47;7.60;99.90
13817;DHT22;6979;52.116;5.286;2023-02-15T08:46:17;7.70;99.90
13817;DHT22;6979;52.116;5.286;2023-02-15T08:48:47;7.80;99.90
13817;DHT22;6979;52.116;5.286;2023-02-15T08:51:18;7.90;99.90
13817;DHT22;6979;52.116;5.286;2023-02-15T08:53:48;8.00;99.90
13817;DHT22;6979;52.116;5.286;2023-02-15T08:56:16;8.10;99.90
13817;DHT22;6979;52.116;5.286;2023-02-15T08:58:47;8.20;99.90
13817;DHT22;6979;52.116;5.286;2023-02-15T09:01:16;8.20;99.90
13817;DHT22;6979;52.116;5.286;2023-02-15T09:03:46;8.30;99.90
13817;DHT22;6979;52.116;5.286;2023-02-15T09:06:13;8.40;99.90
13817;DHT22;6979;52.116;5.286;2023-02-15T09:08:40;8.50;99.90
13817;DHT22;6979;52.116;5.286;2023-02-15T09:11:09;8.60;99.90
13817;DHT22;6979;52.116;5.286;2023-02-15T09:13:37;8.70;99.90
13817;DHT22;6979;52.116;5.286;2023-02-15T09:16:06;8.80;99.90
13817;DHT22;6979;52.116;5.286;2023-02-15T09:18:36;8.90;99.90
13817;DHT22;6979;52.116;5.286;2023-02-15T09:21:05;9.00;99.90
13817;DHT22;6979;52.116;5.286;2023-02-15T09:23:34;9.10;99.90
13817;DHT22;6979;52.116;5.286;2023-02-15T09:26:03;9.20;99.90
13817;DHT22;6979;52.116;5.286;2023-02-15T09:28:30;9.30;99.90
13817;DHT22;6979;52.116;5.286;2023-02-15T09:31:09;9.30;99.90
13817;DHT22;6979;52.116;5.286;2023-02-15T09:33:37;9.40;99.90
13817;DHT22;6979;52.116;5.286;2023-02-15T09:36:05;9.50;99.90
13817;DHT22;6979;52.116;5.286;2023-02-15T09:38:32;9.60;99.90
13817;DHT22;6979;52.116;5.286;2023-02-15T09:41:11;9.80;99.90
13817;DHT22;6979;52.116;5.286;2023-02-15T09:43:46;10.00;99.90
13817;DHT22;6979;52.116;5.286;2023-02-15T09:46:34;10.30;99.90
13817;DHT22;6979;52.116;5.286;2023-02-15T09:49:10;10.60;99.90
13817;DHT22;6979;52.116;5.286;2023-02-15T09:54:58;11.30;99.90
13817;DHT22;6979;52.116;5.286;2023-02-15T09:57:35;11.80;99.90
13817;DHT22;6979;52.116;5.286;2023-02-15T10:00:09;12.20;99.90
13817;DHT22;6979;52.116;5.286;2023-02-15T10:02:56;12.60;99.90
13817;DHT22;6979;52.116;5.286;2023-02-15T10:05:37;13.10;99.90
13817;DHT22;6979;52.116;5.286;2023-02-15T10:08:22;13.50;99.90
13817;DHT22;6979;52.116;5.286;2023-02-15T10:11:00;13.90;99.90
13817;DHT22;6979;52.116;5.286;2023-02-15T10:13:57;14.30;99.90
13817;DHT22;6979;52.116;5.286;2023-02-15T10:16:35;14.60;99.90
13817;DHT22;6979;52.116;5.286;2023-02-15T10:19:18;15.00;99.90
13817;DHT22;6979;52.116;5.286;2023-02-15T10:22:01;15.40;99.90
13817;DHT22;6979;52.116;5.286;2023-02-15T10:27:43;16.10;99.90
13817;DHT22;6979;52.116;5.286;2023-02-15T10:30:13;16.40;99.90
13817;DHT22;6979;52.116;5.286;2023-02-15T10:32:49;16.70;99.90
13817;DHT22;6979;52.116;5.286;2023-02-15T10:35:25;17.10;99.90
13817;DHT22;6979;52.116;5.286;2023-02-15T10:38:08;17.40;99.90
13817;DHT22;6979;52.116;5.286;2023-02-15T10:40:50;17.80;99.90
13817;DHT22;6979;52.116;5.286;2023-02-15T10:43:33;18.00;99.90
13817;DHT22;6979;52.116;5.286;2023-02-15T10:46:09;18.20;99.90
13817;DHT22;6979;52.116;5.286;2023-02-15T10:48:55;18.40;99.90
13817;DHT22;6979;52.116;5.286;2023-02-15T10:51:35;18.60;99.90
13817;DHT22;6979;52.116;5.286;2023-02-15T10:54:16;18.80;99.90
13817;DHT22;6979;52.116;5.286;2023-02-15T10:56:53;18.90;98.50
13817;DHT22;6979;52.116;5.286;2023-02-15T10:59:36;19.10;98.80
13817;DHT22;6979;52.116;5.286;2023-02-15T11:02:14;19.20;98.40
13817;DHT22;6979;52.116;5.286;2023-02-15T11:04:55;19.30;98.80
13817;DHT22;6979;52.116;5.286;2023-02-15T11:07:33;19.30;99.10
13817;DHT22;6979;52.116;5.286;2023-02-15T11:10:10;19.30;97.60
13817;DHT22;6979;52.116;5.286;2023-02-15T11:12:43;19.30;97.20
13817;DHT22;6979;52.116;5.286;2023-02-15T11:15:27;19.30;96.90
13817;DHT22;6979;52.116;5.286;2023-02-15T11:18:00;19.20;96.60
13817;DHT22;6979;52.116;5.286;2023-02-15T11:20:31;19.00;96.50
13817;DHT22;6979;52.116;5.286;2023-02-15T11:23:01;18.80;96.30
13817;DHT22;6979;52.116;5.286;2023-02-15T11:25:30;18.60;96.60
13817;DHT22;6979;52.116;5.286;2023-02-15T11:27:59;18.40;96.20
13817;DHT22;6979;52.116;5.286;2023-02-15T11:30:34;18.20;96.40
13817;DHT22;6979;52.116;5.286;2023-02-15T11:33:05;17.90;96.70
13817;DHT22;6979;52.116;5.286;2023-02-15T11:35:47;17.70;96.60
13817;DHT22;6979;52.116;5.286;2023-02-15T11:38:19;17.50;96.70
13817;DHT22;6979;52.116;5.286;2023-02-15T11:41:01;17.40;97.30
13817;DHT22;6979;52.116;5.286;2023-02-15T11:43:33;17.30;98.00
13817;DHT22;6979;52.116;5.286;2023-02-15T11:46:01;17.30;98.70
13817;DHT22;6979;52.116;5.286;2023-02-15T11:48:35;17.30;98.40
13817;DHT22;6979;52.116;5.286;2023-02-15T11:51:05;17.40;99.10
13817;DHT22;6979;52.116;5.286;2023-02-15T11:53:35;17.50;98.90
13817;DHT22;6979;52.116;5.286;2023-02-15T11:56:04;17.70;98.90
13817;DHT22;6979;52.116;5.286;2023-02-15T11:58:36;17.80;99.50
13817;DHT22;6979;52.116;5.286;2023-02-15T12:01:11;18.00;99.20
13817;DHT22;6979;52.116;5.286;2023-02-15T12:03:46;18.10;99.50
13817;DHT22;6979;52.116;5.286;2023-02-15T12:06:18;18.30;97.80
13817;DHT22;6979;52.116;5.286;2023-02-15T12:08:55;18.40;97.80
13817;DHT22;6979;52.116;5.286;2023-02-15T12:11:28;18.50;96.50
13817;DHT22;6979;52.116;5.286;2023-02-15T12:13:58;18.50;96.90
13817;DHT22;6979;52.116;5.286;2023-02-15T12:16:27;18.50;96.50
13817;DHT22;6979;52.116;5.286;2023-02-15T12:18:56;18.50;96.50
13817;DHT22;6979;52.116;5.286;2023-02-15T12:21:27;18.50;96.30
13817;DHT22;6979;52.116;5.286;2023-02-15T12:24:01;18.40;96.30
13817;DHT22;6979;52.116;5.286;2023-02-15T12:26:34;18.30;96.10
13817;DHT22;6979;52.116;5.286;2023-02-15T12:29:07;18.30;96.70
13817;DHT22;6979;52.116;5.286;2023-02-15T12:31:41;18.20;96.70
13817;DHT22;6979;52.116;5.286;2023-02-15T12:34:11;18.20;97.30
13817;DHT22;6979;52.116;5.286;2023-02-15T12:36:45;18.30;97.60
13817;DHT22;6979;52.116;5.286;2023-02-15T12:39:20;18.30;97.30
13817;DHT22;6979;52.116;5.286;2023-02-15T12:42:02;18.40;96.90
13817;DHT22;6979;52.116;5.286;2023-02-15T12:44:31;18.40;96.90
13817;DHT22;6979;52.116;5.286;2023-02-15T12:47:01;18.50;96.90
13817;DHT22;6979;52.116;5.286;2023-02-15T12:49:29;18.50;96.90
13817;DHT22;6979;52.116;5.286;2023-02-15T12:51:58;18.60;97.30
13817;DHT22;6979;52.116;5.286;2023-02-15T12:54:36;18.70;97.10
13817;DHT22;6979;52.116;5.286;2023-02-15T12:57:22;18.80;95.70
13817;DHT22;6979;52.116;5.286;2023-02-15T12:59:51;18.80;96.10
13817;DHT22;6979;52.116;5.286;2023-02-15T13:02:25;18.90;96.30
13817;DHT22;6979;52.116;5.286;2023-02-15T13:05:04;19.00;96.10
13817;DHT22;6979;52.116;5.286;2023-02-15T13:07:34;19.10;96.20
13817;DHT22;6979;52.116;5.286;2023-02-15T13:10:02;19.10;95.50
13817;DHT22;6979;52.116;5.286;2023-02-15T13:12:31;19.10;95.50
13817;DHT22;6979;52.116;5.286;2023-02-15T13:15:02;19.10;95.60
13817;DHT22;6979;52.116;5.286;2023-02-15T13:17:31;19.10;95.00
13817;DHT22;6979;52.116;5.286;2023-02-15T13:20:04;19.00;95.10
13817;DHT22;6979;52.116;5.286;2023-02-15T13:22:37;19.00;95.00
13817;DHT22;6979;52.116;5.286;2023-02-15T13:25:15;18.90;95.00
13817;DHT22;6979;52.116;5.286;2023-02-15T13:27:44;18.80;95.10
13817;DHT22;6979;52.116;5.286;2023-02-15T13:30:22;18.70;95.50
13817;DHT22;6979;52.116;5.286;2023-02-15T13:32:52;18.70;95.80
13817;DHT22;6979;52.116;5.286;2023-02-15T13:35:21;18.70;95.90
13817;DHT22;6979;52.116;5.286;2023-02-15T13:38:13;18.60;96.10
13817;DHT22;6979;52.116;5.286;2023-02-15T13:40:48;18.60;95.90
13817;DHT22;6979;52.116;5.286;2023-02-15T13:43:30;18.60;95.30
13817;DHT22;6979;52.116;5.286;2023-02-15T13:46:09;18.50;95.40
13817;DHT22;6979;52.116;5.286;2023-02-15T13:48:44;18.40;95.20
13817;DHT22;6979;52.116;5.286;2023-02-15T13:51:19;18.30;95.50
13817;DHT22;6979;52.116;5.286;2023-02-15T13:54:04;18.10;95.70
13817;DHT22;6979;52.116;5.286;2023-02-15T13:56:44;18.00;96.00
13817;DHT22;6979;52.116;5.286;2023-02-15T13:59:31;17.90;96.20
13817;DHT22;6979;52.116;5.286;2023-02-15T14:05:22;17.70;96.60
13817;DHT22;6979;52.116;5.286;2023-02-15T14:07:58;17.60;97.20
13817;DHT22;6979;52.116;5.286;2023-02-15T14:10:49;17.50;96.80
13817;DHT22;6979;52.116;5.286;2023-02-15T14:16:33;17.30;97.20
13817;DHT22;6979;52.116;5.286;2023-02-15T14:19:12;17.30;97.50
13817;DHT22;6979;52.116;5.286;2023-02-15T14:21:48;17.20;97.60
13817;DHT22;6979;52.116;5.286;2023-02-15T14:24:29;17.10;97.80
13817;DHT22;6979;52.116;5.286;2023-02-15T14:27:07;17.10;98.00
13817;DHT22;6979;52.116;5.286;2023-02-15T14:29:46;17.10;98.00
13817;DHT22;6979;52.116;5.286;2023-02-15T14:32:18;17.00;98.10
13817;DHT22;6979;52.116;5.286;2023-02-15T14:34:52;17.00;98.30
13817;DHT22;6979;52.116;5.286;2023-02-15T14:37:27;17.00;98.30
13817;DHT22;6979;52.116;5.286;2023-02-15T14:40:03;16.90;98.40
13817;DHT22;6979;52.116;5.286;2023-02-15T14:42:53;16.90;98.50
13817;DHT22;6979;52.116;5.286;2023-02-15T14:45:29;16.80;98.50
13817;DHT22;6979;52.116;5.286;2023-02-15T14:48:07;16.70;98.70
13817;DHT22;6979;52.116;5.286;2023-02-15T14:50:47;16.80;98.80
13817;DHT22;6979;52.116;5.286;2023-02-15T14:56:21;16.70;99.10
13817;DHT22;6979;52.116;5.286;2023-02-15T14:59:16;16.60;99.10
13817;DHT22;6979;52.116;5.286;2023-02-15T15:01:55;16.50;99.30
13817;DHT22;6979;52.116;5.286;2023-02-15T15:04:28;16.50;99.40
13817;DHT22;6979;52.116;5.286;2023-02-15T15:07:03;16.40;99.50
13817;DHT22;6979;52.116;5.286;2023-02-15T15:09:34;16.40;99.70
13817;DHT22;6979;52.116;5.286;2023-02-15T15:15:03;16.30;99.90
13817;DHT22;6979;52.116;5.286;2023-02-15T15:18:00;16.30;99.90
13817;DHT22;6979;52.116;5.286;2023-02-15T15:20:45;16.30;99.90
13817;DHT22;6979;52.116;5.286;2023-02-15T15:23:39;16.20;99.90
13817;DHT22;6979;52.116;5.286;2023-02-15T15:26:28;16.20;99.90
13817;DHT22;6979;52.116;5.286;2023-02-15T15:28:59;16.10;99.90
13817;DHT22;6979;52.116;5.286;2023-02-15T15:31:35;16.10;99.90
13817;DHT22;6979;52.116;5.286;2023-02-15T15:37:30;16.00;99.90
13817;DHT22;6979;52.116;5.286;2023-02-15T15:40:50;16.00;99.90
13817;DHT22;6979;52.116;5.286;2023-02-15T15:49:26;15.90;99.90
13817;DHT22;6979;52.116;5.286;2023-02-15T15:52:00;15.80;99.90
13817;DHT22;6979;52.116;5.286;2023-02-15T15:54:29;15.80;99.90
13817;DHT22;6979;52.116;5.286;2023-02-15T15:56:59;15.70;99.90
13817;DHT22;6979;52.116;5.286;2023-02-15T15:59:36;15.80;99.90
13817;DHT22;6979;52.116;5.286;2023-02-15T16:02:07;15.80;99.90
13817;DHT22;6979;52.116;5.286;2023-02-15T16:04:36;15.70;99.90
13817;DHT22;6979;52.116;5.286;2023-02-15T16:07:16;15.70;99.90
13817;DHT22;6979;52.116;5.286;2023-02-15T16:09:54;15.60;99.90
13817;DHT22;6979;52.116;5.286;2023-02-15T16:12:22;15.60;99.90
13817;DHT22;6979;52.116;5.286;2023-02-15T16:14:52;15.50;99.90
13817;DHT22;6979;52.116;5.286;2023-02-15T16:17:21;15.50;99.90
13817;DHT22;6979;52.116;5.286;2023-02-15T16:19:51;15.50;99.90
13817;DHT22;6979;52.116;5.286;2023-02-15T16:22:21;15.40;99.90
13817;DHT22;6979;52.116;5.286;2023-02-15T16:25:13;15.40;99.90
13817;DHT22;6979;52.116;5.286;2023-02-15T16:27:47;15.30;99.90
13817;DHT22;6979;52.116;5.286;2023-02-15T16:33:08;15.20;99.90
13817;DHT22;6979;52.116;5.286;2023-02-15T16:35:41;15.20;99.90
13817;DHT22;6979;52.116;5.286;2023-02-15T16:38:11;15.20;99.90
13817;DHT22;6979;52.116;5.286;2023-02-15T16:40:47;15.10;99.90
13817;DHT22;6979;52.116;5.286;2023-02-15T16:43:20;15.10;99.90
13817;DHT22;6979;52.116;5.286;2023-02-15T16:46:02;15.10;99.90
13817;DHT22;6979;52.116;5.286;2023-02-15T16:48:32;15.00;99.90
13817;DHT22;6979;52.116;5.286;2023-02-15T16:51:08;15.00;99.90
13817;DHT22;6979;52.116;5.286;2023-02-15T16:53:37;14.90;99.90
13817;DHT22;6979;52.116;5.286;2023-02-15T16:56:07;14.90;99.90
13817;DHT22;6979;52.116;5.286;2023-02-15T16:58:37;14.80;99.90
13817;DHT22;6979;52.116;5.286;2023-02-15T17:01:09;14.70;99.90
13817;DHT22;6979;52.116;5.286;2023-02-15T17:03:37;14.70;99.90